Time;durP1;ratioP1;P1;durP2;ratioP2;P2;SDS_P1;SDS_P2;PMS_P1;PMS_P2;Temp;Humidity;BMP_temperature;BMP_pressure;BME280_temperature;BME280_humidity;BME280_pressure;Samples;Min_cycle;Max_cycle;Signal;HPM_P1;HPM_P2
2022/05/04 06:22:49;;;;;;;9.93;6.05;;;;;;;;;;5050409;28;20091;-67
2022/05/04 06:34:13;;;;;;;15.75;9.70;;;;;;;;;;5049416;28;20056;-67
2022/05/04 06:36:40;;;;;;;17.13;8.55;;;;;;;;;;5050023;28;20044;-67
2022/05/04 06:39:07;;;;;;;17.65;9.52;;;;;;;;;;5049859;28;20035;-67
2022/05/04 06:41:34;;;;;;;14.07;9.15;;;;;;;;;;5044224;28;20382;-68
2022/05/04 06:44:00;;;;;;;13.90;8.13;;;;;;;;;;5032165;28;20474;-67
2022/05/04 06:46:26;;;;;;;12.45;7.88;;;;;;;;;;5031949;28;20078;-68
2022/05/04 06:48:59;;;;;;;10.68;6.53;;;;;;;;;;5041836;28;20033;-67
2022/05/04 06:51:28;;;;;;;9.60;6.65;;;;;;;;;;5017380;28;20075;-68
2022/05/04 06:53:54;;;;;;;23.17;10.15;;;;;;;;;;5028883;28;20052;-69
2022/05/04 06:56:20;;;;;;;13.20;7.95;;;;;;;;;;5027486;28;20025;-67
2022/05/04 06:58:47;;;;;;;9.38;6.80;;;;;;;;;;5049182;28;20041;-67
2022/05/04 07:01:13;;;;;;;11.32;4.55;;;;;;;;;;5046678;28;20108;-68
2022/05/04 07:03:39;;;;;;;7.50;4.22;;;;;;;;;;5043098;28;20029;-67
2022/05/04 07:06:06;;;;;;;8.85;4.88;;;;;;;;;;5030988;28;20021;-67
2022/05/04 07:08:32;;;;;;;8.13;4.07;;;;;;;;;;5031353;28;20037;-68
2022/05/04 07:10:59;;;;;;;10.35;4.45;;;;;;;;;;5031347;28;20041;-67
2022/05/04 07:13:25;;;;;;;4.95;3.60;;;;;;;;;;5045475;28;20021;-67
2022/05/04 07:15:55;;;;;;;4.80;3.72;;;;;;;;;;5045776;28;20051;-67
2022/05/04 07:18:21;;;;;;;4.43;3.78;;;;;;;;;;5031320;28;20277;-67
2022/05/04 07:20:47;;;;;;;6.00;3.65;;;;;;;;;;5023521;28;20035;-67
2022/05/04 07:23:13;;;;;;;6.47;3.92;;;;;;;;;;5041260;28;20433;-67
2022/05/04 07:25:39;;;;;;;17.50;5.18;;;;;;;;;;5041167;28;20070;-67
2022/05/04 07:28:06;;;;;;;9.00;4.32;;;;;;;;;;5046027;28;20021;-67
2022/05/04 07:30:32;;;;;;;7.63;4.68;;;;;;;;;;5014512;28;20053;-67
2022/05/04 07:32:58;;;;;;;7.75;5.53;;;;;;;;;;5022247;28;20045;-68
2022/05/04 07:35:24;;;;;;;7.53;4.90;;;;;;;;;;5023239;28;20464;-67
2022/05/04 07:37:50;;;;;;;7.18;4.22;;;;;;;;;;5015751;28;20036;-67
2022/05/04 07:43:01;;;;;;;9.65;5.00;;;;;;;;;;5043823;28;20036;-67
2022/05/04 07:45:27;;;;;;;14.10;6.15;;;;;;;;;;5031053;28;20025;-67
2022/05/04 07:47:53;;;;;;;6.75;4.47;;;;;;;;;;5049403;28;20075;-67
2022/05/04 07:50:19;;;;;;;8.75;4.32;;;;;;;;;;5040912;28;20390;-66
2022/05/04 07:52:47;;;;;;;13.57;7.32;;;;;;;;;;5023360;28;20021;-67
2022/05/04 07:55:13;;;;;;;15.73;6.82;;;;;;;;;;5040869;28;20101;-68
2022/05/04 07:57:39;;;;;;;8.45;5.05;;;;;;;;;;5022772;28;20026;-66
2022/05/04 08:05:35;;;;;;;7.78;5.05;;;;;;;;;;5026972;28;20394;-67
2022/05/04 08:08:02;;;;;;;11.05;6.25;;;;;;;;;;5048321;28;20147;-67
2022/05/04 08:10:28;;;;;;;6.13;4.43;;;;;;;;;;5031369;28;20036;-68
2022/05/04 08:12:54;;;;;;;11.50;4.60;;;;;;;;;;5044361;28;20021;-66
2022/05/04 08:15:20;;;;;;;6.88;4.65;;;;;;;;;;5031982;28;20155;-66
2022/05/04 08:17:46;;;;;;;9.95;5.38;;;;;;;;;;5046686;28;20649;-67
2022/05/04 08:20:12;;;;;;;14.02;7.72;;;;;;;;;;5032591;28;20090;-66
2022/05/04 08:22:38;;;;;;;6.53;4.25;;;;;;;;;;5027846;28;20021;-67
2022/05/04 08:25:04;;;;;;;5.35;3.92;;;;;;;;;;5026036;28;20163;-67
2022/05/04 08:27:32;;;;;;;6.93;3.35;;;;;;;;;;5019539;28;20034;-67
2022/05/04 08:29:59;;;;;;;7.78;4.35;;;;;;;;;;5018928;28;20123;-68
2022/05/04 08:32:32;;;;;;;5.63;3.90;;;;;;;;;;5043390;28;20025;-66
2022/05/04 08:35:01;;;;;;;11.63;3.65;;;;;;;;;;5033549;28;20108;-67
2022/05/04 08:37:29;;;;;;;7.65;4.18;;;;;;;;;;5018025;28;20108;-67
2022/05/04 08:39:56;;;;;;;4.63;3.65;;;;;;;;;;5051888;28;20676;-68
2022/05/04 08:42:22;;;;;;;6.00;3.75;;;;;;;;;;5019904;28;20056;-67
2022/05/04 08:44:52;;;;;;;4.97;3.58;;;;;;;;;;5027877;28;20033;-68
2022/05/04 08:47:21;;;;;;;5.65;3.28;;;;;;;;;;5016174;28;20053;-69
2022/05/04 08:49:47;;;;;;;8.88;4.22;;;;;;;;;;5043391;28;20041;-67
2022/05/04 08:52:17;;;;;;;5.78;3.50;;;;;;;;;;5025778;28;20516;-67
2022/05/04 08:54:46;;;;;;;9.10;3.63;;;;;;;;;;5052022;28;20549;-67
2022/05/04 08:57:12;;;;;;;4.38;3.22;;;;;;;;;;5047503;28;20027;-67
2022/05/04 08:59:39;;;;;;;6.43;3.20;;;;;;;;;;5028555;28;20029;-67
2022/05/04 09:02:05;;;;;;;9.07;3.33;;;;;;;;;;5048376;28;20079;-66
2022/05/04 09:04:31;;;;;;;5.43;3.13;;;;;;;;;;5040330;28;20026;-68
2022/05/04 09:07:01;;;;;;;5.72;3.42;;;;;;;;;;5047375;28;20036;-67
2022/05/04 09:09:27;;;;;;;4.10;2.90;;;;;;;;;;5027009;28;20045;-67
2022/05/04 09:11:54;;;;;;;14.48;3.45;;;;;;;;;;5025781;28;20491;-67
2022/05/04 09:14:25;;;;;;;5.90;3.38;;;;;;;;;;5028024;28;20120;-68
2022/05/04 09:16:51;;;;;;;6.13;3.20;;;;;;;;;;5046556;28;20028;-67
2022/05/04 09:19:18;;;;;;;7.45;3.17;;;;;;;;;;5051267;28;20043;-66
2022/05/04 09:21:46;;;;;;;8.48;3.30;;;;;;;;;;5033722;28;20020;-67
2022/05/04 09:24:14;;;;;;;3.35;2.42;;;;;;;;;;5033269;28;20032;-67
2022/05/04 09:26:50;;;;;;;4.90;3.08;;;;;;;;;;5026578;28;20445;-67
2022/05/04 09:29:16;;;;;;;5.47;2.85;;;;;;;;;;5049191;28;20082;-67
2022/05/04 09:31:46;;;;;;;5.32;3.80;;;;;;;;;;5050748;28;20021;-67
2022/05/04 09:34:12;;;;;;;5.68;3.25;;;;;;;;;;5050723;28;20025;-67
2022/05/04 09:45:07;;;;;;;3.20;2.53;;;;;;;;;;5051476;28;20032;-67
2022/05/04 09:47:36;;;;;;;6.32;2.80;;;;;;;;;;5032226;28;20489;-68
2022/05/04 09:50:05;;;;;;;3.80;2.85;;;;;;;;;;5045761;28;20474;-68
2022/05/04 09:52:41;;;;;;;6.82;2.75;;;;;;;;;;5026517;28;20025;-67
2022/05/04 09:55:27;;;;;;;4.65;2.40;;;;;;;;;;5021214;28;20030;-67
2022/05/04 09:57:54;;;;;;;9.15;2.95;;;;;;;;;;5037535;28;20025;-67
2022/05/04 10:00:21;;;;;;;4.72;3.30;;;;;;;;;;5050174;28;20028;-68
2022/05/04 10:02:50;;;;;;;4.63;2.45;;;;;;;;;;5050467;28;20389;-67
2022/05/04 10:05:17;;;;;;;5.73;3.70;;;;;;;;;;5023654;28;20033;-68
2022/05/04 10:07:44;;;;;;;4.13;2.60;;;;;;;;;;5031956;28;20268;-68
2022/05/04 10:10:14;;;;;;;5.10;3.58;;;;;;;;;;5031694;28;20028;-67
2022/05/04 10:12:41;;;;;;;7.50;3.83;;;;;;;;;;5038941;28;20512;-67
2022/05/04 10:15:10;;;;;;;3.28;2.50;;;;;;;;;;5015854;28;20071;-68
2022/05/04 10:17:37;;;;;;;4.70;3.15;;;;;;;;;;5037769;28;20055;-68
2022/05/04 10:20:09;;;;;;;8.68;3.35;;;;;;;;;;5020079;28;20045;-67
2022/05/04 10:22:39;;;;;;;5.50;3.08;;;;;;;;;;5024472;28;20364;-67
2022/05/04 10:25:05;;;;;;;5.70;3.28;;;;;;;;;;5042403;28;20021;-67
2022/05/04 10:27:32;;;;;;;6.10;4.10;;;;;;;;;;5018124;28;20037;-67
2022/05/04 10:32:55;;;;;;;4.32;3.45;;;;;;;;;;5037234;28;20150;-67
2022/05/04 10:35:34;;;;;;;7.78;4.00;;;;;;;;;;5023543;28;20052;-67
2022/05/04 10:38:00;;;;;;;5.28;3.50;;;;;;;;;;5049473;28;20052;-67
2022/05/04 10:40:27;;;;;;;4.88;2.40;;;;;;;;;;5049452;28;20071;-67
2022/05/04 10:42:57;;;;;;;5.75;2.53;;;;;;;;;;5043234;28;20021;-67
2022/05/04 10:45:24;;;;;;;5.00;2.78;;;;;;;;;;5023416;28;20053;-68
2022/05/04 10:47:51;;;;;;;4.85;2.58;;;;;;;;;;5014974;28;20518;-68
2022/05/04 10:50:20;;;;;;;6.35;2.75;;;;;;;;;;5019193;28;20043;-67
2022/05/04 10:52:47;;;;;;;5.00;2.73;;;;;;;;;;5031954;28;20371;-68
2022/05/04 12:09:29;;;;;;;7.22;1.42;;;;;;;;;;5047410;28;20041;-67
2022/05/04 12:11:55;;;;;;;1.17;1.08;;;;;;;;;;5049328;28;20029;-67
2022/05/04 12:39:21;;;;;;;5.22;1.42;;;;;;;;;;5036575;28;20462;-67
2022/05/04 12:41:48;;;;;;;2.50;1.30;;;;;;;;;;5037873;28;20036;-67
2022/05/04 12:44:15;;;;;;;1.65;1.23;;;;;;;;;;5035252;28;20467;-67
2022/05/04 12:46:41;;;;;;;2.95;1.58;;;;;;;;;;5027750;28;20100;-67
2022/05/04 12:49:07;;;;;;;1.70;1.50;;;;;;;;;;5026847;28;20065;-67
2022/05/04 12:51:33;;;;;;;3.83;1.60;;;;;;;;;;5030393;28;20021;-67
2022/05/04 12:53:59;;;;;;;8.15;5.55;;;;;;;;;;5046382;28;20027;-67
2022/05/04 12:59:10;;;;;;;2.47;1.67;;;;;;;;;;5050409;28;20040;-68
2022/05/04 13:01:37;;;;;;;1.63;1.52;;;;;;;;;;5023844;28;20029;-67
2022/05/04 13:04:04;;;;;;;3.03;1.30;;;;;;;;;;5033814;28;20470;-67
2022/05/04 13:06:30;;;;;;;2.92;1.90;;;;;;;;;;5033565;28;20025;-66
2022/05/04 13:08:56;;;;;;;2.90;1.80;;;;;;;;;;5025449;28;20394;-67
2022/05/04 13:11:24;;;;;;;1.40;1.30;;;;;;;;;;5052365;28;20488;-67
2022/05/04 13:13:50;;;;;;;2.78;1.23;;;;;;;;;;5036182;28;20104;-67
2022/05/04 13:16:16;;;;;;;2.53;1.55;;;;;;;;;;5033821;28;20051;-67
2022/05/04 13:18:42;;;;;;;2.25;1.55;;;;;;;;;;5017770;28;20027;-67
2022/05/04 13:21:09;;;;;;;1.98;1.25;;;;;;;;;;5023539;28;20022;-67
2022/05/04 13:23:35;;;;;;;4.13;1.85;;;;;;;;;;5031771;28;20037;-67
2022/05/04 13:26:02;;;;;;;2.95;1.23;;;;;;;;;;5025481;28;20222;-67
2022/05/04 13:28:28;;;;;;;1.33;1.23;;;;;;;;;;5025204;28;20034;-66
2022/05/04 13:30:54;;;;;;;5.47;1.38;;;;;;;;;;5034900;28;20036;-66
2022/05/04 13:33:20;;;;;;;4.22;1.25;;;;;;;;;;5032927;28;20083;-67
2022/05/04 13:35:47;;;;;;;2.83;1.67;;;;;;;;;;5050478;28;20020;-67
2022/05/04 13:38:13;;;;;;;2.63;1.50;;;;;;;;;;5043168;28;20017;-67
2022/05/04 13:40:39;;;;;;;2.80;1.65;;;;;;;;;;5049659;28;20025;-68
2022/05/04 13:43:05;;;;;;;2.90;1.27;;;;;;;;;;5024752;28;20025;-68
2022/05/04 13:45:31;;;;;;;4.75;1.80;;;;;;;;;;5036126;28;20037;-67
2022/05/04 13:47:57;;;;;;;1.63;1.52;;;;;;;;;;5032852;28;20029;-67
2022/05/04 13:53:16;;;;;;;2.45;1.50;;;;;;;;;;5050737;28;20039;-67
2022/05/04 13:55:43;;;;;;;2.33;1.38;;;;;;;;;;5028718;28;20082;-67
2022/05/04 13:58:10;;;;;;;4.72;1.33;;;;;;;;;;5046130;28;20083;-67
2022/05/04 14:00:37;;;;;;;2.58;1.80;;;;;;;;;;5037916;28;20112;-67
2022/05/04 14:03:03;;;;;;;6.10;1.40;;;;;;;;;;5032814;28;20021;-66
2022/05/04 14:05:30;;;;;;;4.70;1.88;;;;;;;;;;5032529;28;20533;-67
2022/05/04 14:07:56;;;;;;;2.42;2.00;;;;;;;;;;5049018;28;20108;-67
2022/05/04 14:10:22;;;;;;;6.70;2.35;;;;;;;;;;5049573;28;20063;-67
2022/05/04 14:12:48;;;;;;;4.32;1.70;;;;;;;;;;5037945;28;20057;-67
2022/05/04 14:15:14;;;;;;;2.28;1.65;;;;;;;;;;5036930;28;20026;-67
2022/05/04 14:17:40;;;;;;;3.40;1.63;;;;;;;;;;5048933;28;20060;-67
2022/05/04 14:20:07;;;;;;;2.08;1.75;;;;;;;;;;5050471;28;20454;-67
2022/05/04 14:22:33;;;;;;;3.75;1.90;;;;;;;;;;5046632;28;20160;-67
2022/05/04 14:25:01;;;;;;;2.83;1.58;;;;;;;;;;5018525;28;20120;-67
2022/05/04 14:27:27;;;;;;;5.50;2.70;;;;;;;;;;5037262;28;20070;-67
2022/05/04 14:29:53;;;;;;;7.30;2.50;;;;;;;;;;5027428;28;20036;-68
2022/05/04 14:32:19;;;;;;;2.78;1.90;;;;;;;;;;5000390;28;20026;-67
2022/05/04 14:34:45;;;;;;;2.45;1.75;;;;;;;;;;5032010;28;20025;-67
2022/05/04 14:37:12;;;;;;;6.97;1.83;;;;;;;;;;5016784;28;20021;-67
2022/05/04 14:39:38;;;;;;;3.47;1.90;;;;;;;;;;5048043;28;20029;-69
2022/05/04 14:42:04;;;;;;;6.07;2.03;;;;;;;;;;5043653;28;20022;-67
2022/05/04 14:44:31;;;;;;;3.15;1.80;;;;;;;;;;5046289;28;20500;-67
2022/05/04 14:46:57;;;;;;;2.65;1.77;;;;;;;;;;5015723;28;20113;-67
2022/05/04 14:49:23;;;;;;;3.40;1.58;;;;;;;;;;5017040;28;20547;-67
2022/05/04 14:51:50;;;;;;;2.03;1.52;;;;;;;;;;5049441;28;20043;-66
2022/05/04 14:54:16;;;;;;;3.35;1.30;;;;;;;;;;5021093;28;20037;-67
2022/05/04 14:56:42;;;;;;;3.05;1.42;;;;;;;;;;5029008;28;20116;-67
2022/05/04 14:59:08;;;;;;;7.00;1.60;;;;;;;;;;5041205;28;20481;-67
2022/05/04 15:01:34;;;;;;;5.05;1.50;;;;;;;;;;5036718;28;20463;-67
2022/05/04 15:06:46;;;;;;;2.95;1.67;;;;;;;;;;5049494;28;20040;-67
2022/05/04 15:09:12;;;;;;;2.47;1.70;;;;;;;;;;5024989;28;20447;-67
2022/05/04 15:11:38;;;;;;;2.67;1.70;;;;;;;;;;5048014;28;20059;-67
2022/05/04 15:14:04;;;;;;;2.58;1.70;;;;;;;;;;5025965;28;20056;-67
2022/05/04 15:16:30;;;;;;;1.83;1.60;;;;;;;;;;5011295;28;20128;-67
2022/05/04 15:18:56;;;;;;;4.88;1.55;;;;;;;;;;5025352;28;20116;-67
2022/05/04 15:21:22;;;;;;;1.45;1.35;;;;;;;;;;5027644;28;20037;-67
2022/05/04 15:23:48;;;;;;;3.28;2.00;;;;;;;;;;5027326;28;20482;-68
2022/05/04 15:26:17;;;;;;;3.38;1.75;;;;;;;;;;5021764;28;20022;-67
2022/05/04 15:28:43;;;;;;;5.38;1.60;;;;;;;;;;5034599;28;20033;-66
2022/05/04 15:31:09;;;;;;;2.58;1.58;;;;;;;;;;5040285;28;20030;-67
2022/05/04 15:33:35;;;;;;;3.38;1.83;;;;;;;;;;5050166;28;20048;-67
2022/05/04 15:36:01;;;;;;;3.75;1.52;;;;;;;;;;5034824;28;20531;-68
2022/05/04 15:38:27;;;;;;;2.88;1.80;;;;;;;;;;5026313;28;20025;-67
2022/05/04 15:40:53;;;;;;;4.22;1.55;;;;;;;;;;5045632;28;20032;-67
2022/05/04 15:43:19;;;;;;;2.53;1.60;;;;;;;;;;5052995;28;20029;-67
2022/05/04 15:45:45;;;;;;;3.58;2.30;;;;;;;;;;5030268;28;21670;-67
2022/05/04 15:48:11;;;;;;;4.18;2.13;;;;;;;;;;5024146;28;20224;-67
2022/05/04 15:50:37;;;;;;;3.72;1.65;;;;;;;;;;5052797;28;20169;-67
2022/05/04 15:53:04;;;;;;;2.63;2.00;;;;;;;;;;5047710;28;20032;-67
2022/05/04 15:55:30;;;;;;;2.55;1.60;;;;;;;;;;5022820;28;20033;-68
2022/05/04 15:57:56;;;;;;;3.95;1.30;;;;;;;;;;5052503;28;20390;-68
2022/05/04 16:00:22;;;;;;;3.05;1.70;;;;;;;;;;5044519;28;20065;-67
2022/05/04 16:05:33;;;;;;;2.15;1.83;;;;;;;;;;5047415;28;20044;-67
2022/05/04 16:07:59;;;;;;;2.20;1.77;;;;;;;;;;5014852;28;20409;-67
2022/05/04 16:10:25;;;;;;;2.70;1.73;;;;;;;;;;5052241;28;20044;-67
2022/05/04 16:12:51;;;;;;;2.50;1.67;;;;;;;;;;5048691;28;20025;-67
2022/05/04 16:15:21;;;;;;;3.90;1.80;;;;;;;;;;5047485;28;20039;-67
2022/05/04 16:23:17;;;;;;;3.08;2.08;;;;;;;;;;5052681;28;20047;-68
2022/05/04 16:25:43;;;;;;;2.00;1.80;;;;;;;;;;5050045;28;20470;-67
2022/05/04 16:28:09;;;;;;;2.28;1.67;;;;;;;;;;5051914;28;20025;-67
2022/05/04 16:30:36;;;;;;;5.85;1.88;;;;;;;;;;5051123;28;20025;-67
2022/05/04 16:33:02;;;;;;;4.78;1.80;;;;;;;;;;5020614;28;20445;-67
2022/05/04 16:35:28;;;;;;;4.85;1.70;;;;;;;;;;5034331;28;20025;-69
2022/05/04 16:37:54;;;;;;;4.50;1.90;;;;;;;;;;5036022;28;20021;-68
2022/05/04 16:40:21;;;;;;;2.55;1.40;;;;;;;;;;5019140;28;20399;-67
2022/05/04 16:42:47;;;;;;;2.97;1.50;;;;;;;;;;5023806;28;20382;-67
2022/05/04 16:45:13;;;;;;;3.45;1.50;;;;;;;;;;5025492;28;20021;-67
2022/05/04 16:47:39;;;;;;;2.13;1.60;;;;;;;;;;5024371;28;20091;-67
2022/05/04 16:50:05;;;;;;;2.22;1.55;;;;;;;;;;5026063;28;20040;-68
2022/05/04 16:52:33;;;;;;;2.00;1.45;;;;;;;;;;5033993;28;20497;-67
2022/05/04 16:54:59;;;;;;;2.15;1.50;;;;;;;;;;5034518;28;20040;-68
2022/05/04 16:57:25;;;;;;;3.80;1.60;;;;;;;;;;5050794;28;20058;-67
2022/05/04 16:59:51;;;;;;;4.30;1.50;;;;;;;;;;5033805;28;20024;-68
2022/05/04 17:02:17;;;;;;;2.13;1.58;;;;;;;;;;5030212;28;20032;-67
2022/05/04 17:04:43;;;;;;;4.03;1.73;;;;;;;;;;5025598;28;20152;-67
2022/05/04 17:07:09;;;;;;;2.58;1.77;;;;;;;;;;5033635;28;20025;-68
2022/05/04 17:09:35;;;;;;;4.20;2.17;;;;;;;;;;5051044;28;20399;-68
2022/05/04 17:12:01;;;;;;;3.33;1.80;;;;;;;;;;5033372;28;20025;-67
2022/05/04 17:14:27;;;;;;;4.57;1.92;;;;;;;;;;5051639;28;20032;-67
2022/05/04 17:16:53;;;;;;;3.00;1.90;;;;;;;;;;5041790;28;20414;-67
2022/05/04 17:19:19;;;;;;;2.67;1.88;;;;;;;;;;5051461;28;20033;-67
2022/05/04 17:21:45;;;;;;;1.60;1.50;;;;;;;;;;5025405;28;20035;-68
2022/05/04 17:24:11;;;;;;;3.58;1.60;;;;;;;;;;5051325;28;20013;-68
2022/05/04 17:26:38;;;;;;;3.38;1.98;;;;;;;;;;5047418;28;20086;-70
2022/05/04 17:29:04;;;;;;;1.67;1.52;;;;;;;;;;5026628;28;20029;-68
2022/05/04 17:31:31;;;;;;;2.75;1.58;;;;;;;;;;5042327;28;20105;-68
2022/05/04 17:36:45;;;;;;;1.95;1.60;;;;;;;;;;5040743;28;20544;-67
2022/05/04 17:39:12;;;;;;;1.63;1.50;;;;;;;;;;5024662;28;20410;-67
2022/05/04 17:41:38;;;;;;;3.92;1.70;;;;;;;;;;5050696;28;20394;-67
2022/05/04 17:44:06;;;;;;;2.22;1.50;;;;;;;;;;5020811;28;20451;-68
2022/05/04 17:46:41;;;;;;;2.78;1.77;;;;;;;;;;5021418;28;20055;-67
2022/05/04 17:49:08;;;;;;;3.80;1.73;;;;;;;;;;5035992;28;20617;-68
2022/05/04 17:51:35;;;;;;;2.42;1.63;;;;;;;;;;5042115;28;20095;-67
2022/05/04 17:54:02;;;;;;;1.75;1.58;;;;;;;;;;5042498;28;20032;-68
2022/05/04 17:56:28;;;;;;;2.47;1.23;;;;;;;;;;5040997;28;20039;-68
2022/05/04 17:58:54;;;;;;;2.00;1.42;;;;;;;;;;5049717;28;20067;-68
2022/05/04 18:03:33;;;;;;;1.42;1.30;;;;;;;;;;5050110;28;20017;-67
2022/05/04 18:04:10;;;;;;;2.85;1.55;;;;;;;;;;5028267;28;20120;-67
2022/05/04 18:06:37;;;;;;;2.13;1.25;;;;;;;;;;5049793;28;20064;-67
2022/05/04 18:09:04;;;;;;;3.35;1.58;;;;;;;;;;5031899;28;20128;-67
2022/05/04 18:11:30;;;;;;;3.85;1.75;;;;;;;;;;5050072;28;20394;-67
2022/05/04 18:13:57;;;;;;;1.58;1.13;;;;;;;;;;5049637;28;20020;-67
2022/05/04 18:16:23;;;;;;;1.65;1.40;;;;;;;;;;5041455;28;20110;-67
2022/05/04 18:18:49;;;;;;;1.67;1.50;;;;;;;;;;5040312;28;20029;-68
2022/05/04 18:21:16;;;;;;;1.83;1.60;;;;;;;;;;5050168;28;20024;-67
2022/05/04 18:23:42;;;;;;;1.63;1.40;;;;;;;;;;5039706;28;20478;-67
2022/05/04 18:26:08;;;;;;;2.58;1.58;;;;;;;;;;5026284;28;20025;-67
2022/05/04 18:28:36;;;;;;;7.82;2.05;;;;;;;;;;5024058;28;20063;-68
2022/05/04 18:31:06;;;;;;;3.60;1.88;;;;;;;;;;5017003;28;20537;-68
2022/05/04 18:33:32;;;;;;;2.35;1.73;;;;;;;;;;5033011;28;20091;-68
2022/05/04 18:35:58;;;;;;;6.38;2.53;;;;;;;;;;5041504;28;20056;-68
2022/05/04 18:38:24;;;;;;;6.00;2.55;;;;;;;;;;5050137;28;20483;-67
2022/05/04 18:40:50;;;;;;;5.72;2.50;;;;;;;;;;5022585;28;20121;-68
2022/05/04 18:43:16;;;;;;;5.07;2.65;;;;;;;;;;5031931;28;20112;-67
2022/05/04 18:45:43;;;;;;;6.95;2.88;;;;;;;;;;5023641;28;20132;-67
2022/05/04 18:48:10;;;;;;;4.63;2.40;;;;;;;;;;5027535;28;20021;-66
2022/05/04 18:50:36;;;;;;;4.50;2.75;;;;;;;;;;5049766;28;20040;-66
2022/05/04 18:53:02;;;;;;;5.25;2.95;;;;;;;;;;5033224;28;20032;-68
2022/05/04 18:55:29;;;;;;;6.28;2.90;;;;;;;;;;5022841;28;20025;-68
2022/05/04 18:57:55;;;;;;;5.78;3.03;;;;;;;;;;5031504;28;20175;-68
2022/05/04 19:00:21;;;;;;;10.20;3.33;;;;;;;;;;5033432;28;20057;-67
2022/05/04 19:02:50;;;;;;;6.43;3.53;;;;;;;;;;5026403;28;20041;-67
2022/05/04 19:05:16;;;;;;;8.07;2.95;;;;;;;;;;5049588;28;20032;-67
2022/05/04 19:07:43;;;;;;;7.15;2.83;;;;;;;;;;5031342;28;20032;-67
2022/05/04 19:10:09;;;;;;;4.40;2.70;;;;;;;;;;5049360;28;20068;-68
2022/05/04 19:12:35;;;;;;;8.45;2.80;;;;;;;;;;5041501;28;20093;-67
2022/05/04 19:15:01;;;;;;;5.80;2.80;;;;;;;;;;5015381;28;20792;-68
2022/05/04 19:17:27;;;;;;;3.25;2.72;;;;;;;;;;5049549;28;20021;-67
2022/05/04 19:19:54;;;;;;;3.92;2.65;;;;;;;;;;5004830;28;20026;-68
2022/05/04 19:22:20;;;;;;;5.47;2.75;;;;;;;;;;5022736;28;20080;-67
2022/05/04 19:24:46;;;;;;;3.25;2.60;;;;;;;;;;5010959;28;20133;-67
2022/05/04 19:27:12;;;;;;;3.97;3.08;;;;;;;;;;5046357;28;20029;-68
2022/05/04 19:29:39;;;;;;;8.15;4.38;;;;;;;;;;5020208;28;20048;-67
2022/05/04 19:32:05;;;;;;;5.85;4.13;;;;;;;;;;5023265;28;20029;-67
2022/05/04 19:34:31;;;;;;;10.98;4.55;;;;;;;;;;5011507;28;20030;-68
2022/05/04 19:36:57;;;;;;;5.53;4.47;;;;;;;;;;5034748;28;20092;-66
2022/05/04 19:39:23;;;;;;;14.65;5.15;;;;;;;;;;5026067;28;20029;-67
2022/05/04 19:41:49;;;;;;;9.45;4.53;;;;;;;;;;5049000;28;20029;-67
2022/05/04 19:44:15;;;;;;;7.65;3.95;;;;;;;;;;5031112;28;20079;-67
2022/05/04 19:46:47;;;;;;;6.60;3.65;;;;;;;;;;5022282;28;20393;-67
2022/05/04 19:49:13;;;;;;;6.00;3.38;;;;;;;;;;5028794;28;20406;-68
2022/05/04 19:51:39;;;;;;;4.82;3.80;;;;;;;;;;5027857;28;20414;-68
2022/05/04 19:54:07;;;;;;;8.13;3.85;;;;;;;;;;5031674;28;20457;-68
2022/05/04 19:56:34;;;;;;;4.22;3.05;;;;;;;;;;5048190;28;20470;-67
2022/05/04 19:59:00;;;;;;;5.90;3.58;;;;;;;;;;5022537;28;20036;-68
2022/05/04 20:01:26;;;;;;;9.05;4.18;;;;;;;;;;5048763;28;20545;-67
2022/05/04 20:03:52;;;;;;;5.07;3.67;;;;;;;;;;5036282;28;20179;-67
2022/05/04 20:06:18;;;;;;;10.73;3.97;;;;;;;;;;5050598;28;20436;-67
2022/05/04 20:08:44;;;;;;;7.32;5.10;;;;;;;;;;5016214;28;20118;-67
2022/05/04 20:11:10;;;;;;;9.85;4.22;;;;;;;;;;5044642;28;20466;-68
2022/05/04 20:13:36;;;;;;;11.48;4.57;;;;;;;;;;5052246;28;20028;-67
2022/05/04 20:16:02;;;;;;;7.55;4.65;;;;;;;;;;5051978;28;20025;-67
2022/05/04 20:18:28;;;;;;;8.65;4.57;;;;;;;;;;5026536;28;20509;-68
2022/05/04 20:20:54;;;;;;;12.40;4.95;;;;;;;;;;5050241;28;20190;-68
2022/05/04 20:23:20;;;;;;;9.55;4.40;;;;;;;;;;5052270;28;20506;-66
2022/05/04 20:25:46;;;;;;;10.15;4.70;;;;;;;;;;5048425;28;20014;-68
2022/05/04 20:28:12;;;;;;;5.32;3.67;;;;;;;;;;5034354;28;20059;-67
2022/05/04 20:30:39;;;;;;;6.20;3.50;;;;;;;;;;5034386;28;20033;-68
2022/05/04 20:33:05;;;;;;;5.60;3.28;;;;;;;;;;5025872;28;20552;-67
2022/05/04 20:35:31;;;;;;;3.92;3.28;;;;;;;;;;5029431;28;20043;-68
2022/05/04 20:40:42;;;;;;;6.10;3.45;;;;;;;;;;5049399;28;20118;-67
2022/05/04 20:43:08;;;;;;;6.28;3.13;;;;;;;;;;5052315;28;20237;-68
2022/05/04 20:45:35;;;;;;;6.28;3.53;;;;;;;;;;5011069;28;20080;-68
2022/05/04 20:48:01;;;;;;;6.68;3.58;;;;;;;;;;5021296;28;20033;-68
2022/05/04 20:53:12;;;;;;;4.88;3.50;;;;;;;;;;5036606;28;20113;-68
2022/05/04 20:55:38;;;;;;;5.95;3.47;;;;;;;;;;5024604;28;20035;-68
2022/05/04 20:58:04;;;;;;;6.55;3.40;;;;;;;;;;5033356;28;20024;-68
2022/05/04 21:00:30;;;;;;;6.28;3.55;;;;;;;;;;5033862;28;20024;-67
2022/05/04 21:02:56;;;;;;;6.15;3.45;;;;;;;;;;5025298;28;20030;-66
2022/05/04 21:05:23;;;;;;;3.97;3.13;;;;;;;;;;5030485;28;20061;-68
2022/05/04 21:07:50;;;;;;;8.30;3.53;;;;;;;;;;5032353;28;20067;-69
2022/05/04 21:10:16;;;;;;;5.13;3.10;;;;;;;;;;5044034;28;20039;-67
2022/05/04 21:12:42;;;;;;;3.90;2.53;;;;;;;;;;5051515;28;20024;-67
2022/05/04 21:15:08;;;;;;;5.32;3.22;;;;;;;;;;5051496;28;20100;-67
2022/05/04 21:17:34;;;;;;;4.45;3.25;;;;;;;;;;5050620;28;20171;-68
2022/05/04 21:20:00;;;;;;;7.85;2.90;;;;;;;;;;5040426;28;20496;-67
2022/05/04 21:22:26;;;;;;;4.38;2.95;;;;;;;;;;5037261;28;20057;-67
2022/05/04 21:24:52;;;;;;;7.35;3.33;;;;;;;;;;5048822;28;20040;-68
2022/05/04 21:27:19;;;;;;;5.63;3.05;;;;;;;;;;5046701;28;20473;-68
2022/05/04 21:29:45;;;;;;;6.05;3.70;;;;;;;;;;5042882;28;20033;-67
2022/05/04 21:32:11;;;;;;;6.40;3.70;;;;;;;;;;5034805;28;20048;-68
2022/05/04 21:34:37;;;;;;;4.47;3.38;;;;;;;;;;5036077;28;20088;-69
2022/05/04 21:37:05;;;;;;;4.63;3.33;;;;;;;;;;5045617;28;20028;-68
2022/05/04 21:39:31;;;;;;;5.47;3.33;;;;;;;;;;5037753;28;20065;-68
2022/05/04 21:41:57;;;;;;;5.88;3.55;;;;;;;;;;5024583;28;20191;-67
2022/05/04 21:44:23;;;;;;;5.70;3.15;;;;;;;;;;5024674;28;20530;-67
2022/05/04 21:46:49;;;;;;;4.43;3.05;;;;;;;;;;5050216;28;20123;-67
2022/05/04 21:49:15;;;;;;;4.15;2.95;;;;;;;;;;5043484;28;20124;-67
2022/05/04 21:51:42;;;;;;;4.13;3.00;;;;;;;;;;5042460;28;20059;-67
2022/05/04 21:54:07;;;;;;;7.18;3.17;;;;;;;;;;5038273;28;20072;-68
2022/05/04 21:56:34;;;;;;;5.03;3.20;;;;;;;;;;5027108;28;20443;-68
2022/05/04 21:59:00;;;;;;;8.88;3.47;;;;;;;;;;5014735;28;20129;-68
2022/05/04 22:01:26;;;;;;;5.80;3.00;;;;;;;;;;5026769;28;20108;-67
2022/05/04 22:03:52;;;;;;;4.40;3.22;;;;;;;;;;5050308;28;20029;-67
2022/05/04 22:06:18;;;;;;;8.02;3.60;;;;;;;;;;5020746;28;20269;-67
2022/05/04 22:08:44;;;;;;;3.95;2.90;;;;;;;;;;5009575;28;20033;-68
2022/05/04 22:13:54;;;;;;;8.25;4.47;;;;;;;;;;5048056;28;20165;-67
2022/05/04 22:16:21;;;;;;;9.50;4.38;;;;;;;;;;5049503;28;20021;-67
2022/05/04 22:18:47;;;;;;;6.45;4.10;;;;;;;;;;5032432;28;20047;-68
2022/05/04 22:21:14;;;;;;;5.88;4.20;;;;;;;;;;5035840;28;20036;-67
2022/05/04 22:23:40;;;;;;;5.78;3.97;;;;;;;;;;5042877;28;20026;-67
2022/05/04 22:26:06;;;;;;;11.88;3.88;;;;;;;;;;5041354;28;20022;-67
2022/05/04 22:28:32;;;;;;;9.75;3.38;;;;;;;;;;5036869;28;20029;-67
2022/05/04 22:30:58;;;;;;;7.40;3.63;;;;;;;;;;5049995;28;20114;-67
2022/05/04 22:33:24;;;;;;;8.82;3.83;;;;;;;;;;5050922;28;20047;-67
2022/05/04 22:35:50;;;;;;;9.93;3.83;;;;;;;;;;5044046;28;20033;-68
2022/05/04 22:38:16;;;;;;;5.78;3.58;;;;;;;;;;5023815;28;20021;-67
2022/05/04 22:40:45;;;;;;;5.60;3.75;;;;;;;;;;5050086;28;20039;-68
2022/05/04 22:43:11;;;;;;;6.93;4.20;;;;;;;;;;5031862;28;20470;-67
2022/05/04 22:45:37;;;;;;;5.53;3.88;;;;;;;;;;5023676;28;20035;-67
2022/05/04 22:48:03;;;;;;;5.93;4.22;;;;;;;;;;5030285;28;20300;-68
2022/05/04 22:50:29;;;;;;;8.23;4.30;;;;;;;;;;5013118;28;20041;-67
2022/05/04 22:52:55;;;;;;;7.88;4.07;;;;;;;;;;5026340;28;20025;-67
2022/05/04 22:55:21;;;;;;;5.95;4.00;;;;;;;;;;5022333;28;20053;-70
2022/05/04 22:57:48;;;;;;;5.30;3.35;;;;;;;;;;5030859;28;20470;-68
2022/05/04 23:00:14;;;;;;;6.15;4.40;;;;;;;;;;5041580;28;20112;-68
2022/05/04 23:02:40;;;;;;;9.20;4.45;;;;;;;;;;5019245;28;20029;-67
2022/05/04 23:05:06;;;;;;;7.65;3.67;;;;;;;;;;5038959;28;20088;-67
2022/05/04 23:07:32;;;;;;;7.13;3.65;;;;;;;;;;5017164;28;20044;-68
2022/05/04 23:10:00;;;;;;;5.20;3.38;;;;;;;;;;5047447;28;20049;-67
2022/05/04 23:12:26;;;;;;;8.63;3.67;;;;;;;;;;5034154;28;20041;-68
2022/05/04 23:14:58;;;;;;;4.88;3.58;;;;;;;;;;5034178;28;20378;-67
2022/05/04 23:17:24;;;;;;;5.80;3.58;;;;;;;;;;5031982;28;20028;-68
2022/05/04 23:19:50;;;;;;;8.23;3.78;;;;;;;;;;5022095;28;20021;-67
2022/05/04 23:22:16;;;;;;;8.20;4.30;;;;;;;;;;5049429;28;20108;-68
2022/05/04 23:24:42;;;;;;;5.05;3.78;;;;;;;;;;5024521;28;20617;-67
2022/05/04 23:27:09;;;;;;;6.00;3.85;;;;;;;;;;5042790;28;20031;-67
2022/05/04 23:29:35;;;;;;;5.85;4.10;;;;;;;;;;5048953;28;20044;-67
2022/05/04 23:32:01;;;;;;;7.00;4.10;;;;;;;;;;5048922;28;20025;-67
2022/05/04 23:34:27;;;;;;;6.45;3.83;;;;;;;;;;5049378;28;20025;-67
2022/05/04 23:39:39;;;;;;;6.25;3.85;;;;;;;;;;5050531;28;20548;-68